createdAt,value
2018-08-13T00:01:05.913Z,18.30
2018-08-13T00:03:34.240Z,18.30
2018-08-13T00:06:02.593Z,18.20
2018-08-13T00:08:30.901Z,18.20
2018-08-13T00:10:59.247Z,18.20
2018-08-13T00:13:27.579Z,18.10
2018-08-13T00:15:55.938Z,18.10
2018-08-13T00:18:24.314Z,18.10
2018-08-13T00:20:52.723Z,18.10
2018-08-13T00:23:21.069Z,18.10
2018-08-13T00:25:49.476Z,18.10
2018-08-13T00:28:17.802Z,18.10
2018-08-13T00:30:46.926Z,18.30
2018-08-13T00:33:15.281Z,18.20
2018-08-13T00:35:44.391Z,18.40
2018-08-13T00:38:13.492Z,18.40
2018-08-13T00:40:41.897Z,18.40
2018-08-13T00:43:10.342Z,18.40
2018-08-13T00:45:39.476Z,18.40
2018-08-13T00:48:07.820Z,18.40
2018-08-13T00:50:36.945Z,18.30
2018-08-13T00:53:05.427Z,18.30
2018-08-13T00:55:33.793Z,18.30
2018-08-13T00:58:02.376Z,18.30
2018-08-13T01:00:30.708Z,18.30
2018-08-13T01:02:59.040Z,18.30
2018-08-13T01:05:27.396Z,18.30
2018-08-13T01:07:56.508Z,18.40
2018-08-13T01:10:24.886Z,18.40
2018-08-13T01:12:53.310Z,18.50
2018-08-13T01:15:21.655Z,18.50
2018-08-13T01:17:49.996Z,18.50
2018-08-13T01:20:19.115Z,18.60
2018-08-13T01:22:47.611Z,18.60
2018-08-13T01:25:15.949Z,18.60
2018-08-13T01:27:44.289Z,18.60
2018-08-13T01:30:12.707Z,18.50
2018-08-13T01:32:41.042Z,18.50
2018-08-13T01:35:09.376Z,18.50
2018-08-13T01:37:38.497Z,18.40
2018-08-13T01:40:06.955Z,18.40
2018-08-13T01:42:36.062Z,18.30
2018-08-13T01:45:04.452Z,18.30
2018-08-13T01:47:33.251Z,18.30
2018-08-13T01:50:01.596Z,18.20
2018-08-13T01:52:29.967Z,18.20
2018-08-13T01:54:59.647Z,18.10
2018-08-13T01:57:27.970Z,18.10
2018-08-13T01:59:56.334Z,18.00
2018-08-13T02:02:24.658Z,18.00
2018-08-13T02:04:53.019Z,17.90
2018-08-13T02:07:21.357Z,17.90
2018-08-13T02:09:49.693Z,17.80
2018-08-13T02:12:18.039Z,17.80
2018-08-13T02:14:47.263Z,17.70
2018-08-13T02:17:15.615Z,17.70
2018-08-13T02:19:44.728Z,17.60
2018-08-13T02:22:13.056Z,17.60
2018-08-13T02:24:41.498Z,17.50
2018-08-13T02:27:09.912Z,17.50
2018-08-13T02:29:38.247Z,17.50
2018-08-13T02:32:06.568Z,17.40
2018-08-13T02:34:34.911Z,17.40
2018-08-13T02:37:03.260Z,17.40
2018-08-13T02:39:32.385Z,17.30
2018-08-13T02:42:00.737Z,17.30
2018-08-13T02:44:29.871Z,17.20
2018-08-13T02:46:58.199Z,17.20
2018-08-13T02:49:26.685Z,17.20
2018-08-13T02:51:55.077Z,17.20
2018-08-13T02:54:24.209Z,17.20
2018-08-13T02:56:53.287Z,17.20
2018-08-13T02:59:21.645Z,17.20
2018-08-13T03:01:50.087Z,17.20
2018-08-13T03:04:18.529Z,17.20
2018-08-13T03:06:46.819Z,17.20
2018-08-13T03:09:15.160Z,17.20
2018-08-13T03:11:43.485Z,17.20
2018-08-13T03:14:11.838Z,17.20
2018-08-13T03:16:40.249Z,17.20
2018-08-13T03:19:08.582Z,17.10
2018-08-13T03:21:37.678Z,17.00
2018-08-13T03:24:06.885Z,17.00
2018-08-13T03:26:35.281Z,17.00
2018-08-13T03:29:03.618Z,17.00
2018-08-13T03:31:31.964Z,17.00
2018-08-13T03:34:00.307Z,17.00
2018-08-13T03:36:28.672Z,17.00
2018-08-13T03:38:57.792Z,17.00
2018-08-13T03:41:26.109Z,17.00
2018-08-13T03:43:54.520Z,17.00
2018-08-13T03:46:22.928Z,17.00
2018-08-13T03:48:51.286Z,17.00
2018-08-13T03:51:20.388Z,17.00
2018-08-13T03:53:48.884Z,17.00
2018-08-13T03:56:17.989Z,17.00
2018-08-13T03:58:46.320Z,17.00
2018-08-13T04:01:14.659Z,17.10
2018-08-13T04:03:43.051Z,17.10
2018-08-13T04:06:11.402Z,17.10
2018-08-13T04:08:39.743Z,17.10
2018-08-13T04:11:08.091Z,17.10
2018-08-13T04:13:36.445Z,17.20
2018-08-13T04:16:04.826Z,17.20
2018-08-13T04:18:33.406Z,17.20
2018-08-13T04:21:01.750Z,17.20
2018-08-13T04:23:30.873Z,17.30
2018-08-13T04:25:59.221Z,17.30
2018-08-13T04:28:28.341Z,17.30
2018-08-13T04:30:56.681Z,17.30
2018-08-13T04:33:25.029Z,17.30
2018-08-13T04:35:53.398Z,17.30
2018-08-13T04:38:21.723Z,17.30
2018-08-13T04:40:50.071Z,17.30
2018-08-13T04:43:18.421Z,17.30
2018-08-13T04:45:46.801Z,17.30
2018-08-13T04:48:15.417Z,17.40
2018-08-13T04:50:43.728Z,17.40
2018-08-13T04:53:12.879Z,17.50
2018-08-13T04:55:41.211Z,17.50
2018-08-13T04:58:10.315Z,17.50
2018-08-13T05:00:39.570Z,17.60
2018-08-13T05:03:07.897Z,17.50
2018-08-13T05:05:37.041Z,17.60
2018-08-13T05:08:05.457Z,17.60
2018-08-13T05:10:33.836Z,17.60
2018-08-13T05:13:02.947Z,17.70
2018-08-13T05:15:32.040Z,17.70
2018-08-13T05:18:01.194Z,17.80
2018-08-13T05:20:29.591Z,17.70
2018-08-13T05:22:58.072Z,17.80
2018-08-13T05:25:27.040Z,17.90
2018-08-13T05:27:55.401Z,17.90
2018-08-13T05:30:24.326Z,18.00
2018-08-13T05:32:52.623Z,18.10
2018-08-13T05:35:20.959Z,18.20
2018-08-13T05:37:49.311Z,18.30
2018-08-13T05:40:17.654Z,18.40
2018-08-13T05:42:46.081Z,18.60
2018-08-13T05:45:14.477Z,18.60
2018-08-13T05:47:42.889Z,18.70
2018-08-13T05:50:11.218Z,18.70
2018-08-13T05:52:39.547Z,18.80
2018-08-13T05:55:07.883Z,18.90
2018-08-13T05:57:36.912Z,19.00
2018-08-13T06:00:06.433Z,19.00
2018-08-13T06:02:34.779Z,19.10
2018-08-13T06:05:03.174Z,19.10
2018-08-13T06:07:31.563Z,19.20
2018-08-13T06:10:00.016Z,19.30
2018-08-13T06:12:28.354Z,19.50
2018-08-13T06:14:56.732Z,19.60
2018-08-13T06:17:25.937Z,20.00
2018-08-13T06:19:54.265Z,20.00
2018-08-13T06:22:22.671Z,20.10
2018-08-13T06:24:50.947Z,20.20
2018-08-13T06:27:19.551Z,20.30
2018-08-13T06:29:47.883Z,20.40
2018-08-13T06:32:16.237Z,20.40
2018-08-13T06:34:44.585Z,20.60
2018-08-13T06:37:12.977Z,20.80
2018-08-13T06:39:41.340Z,21.00
2018-08-13T06:42:09.749Z,21.10
2018-08-13T06:44:38.124Z,21.30
2018-08-13T06:47:06.493Z,21.50
2018-08-13T06:49:35.004Z,21.70
2018-08-13T06:52:03.399Z,21.90
2018-08-13T06:54:31.746Z,22.00
2018-08-13T06:57:00.082Z,22.00
2018-08-13T06:59:28.418Z,22.00
2018-08-13T07:01:56.809Z,22.00
2018-08-13T07:04:25.125Z,22.20
2018-08-13T07:06:53.571Z,22.30
2018-08-13T07:09:21.939Z,22.50
2018-08-13T07:11:51.040Z,22.70
2018-08-13T07:14:19.841Z,22.90
2018-08-13T07:16:48.262Z,23.00
2018-08-13T07:19:17.812Z,23.10
2018-08-13T07:21:46.161Z,23.10
2018-08-13T07:24:14.485Z,23.20
2018-08-13T07:26:42.845Z,23.40
2018-08-13T07:29:11.169Z,23.50
2018-08-13T07:31:40.312Z,23.60
2018-08-13T07:34:08.638Z,23.60
2018-08-13T07:36:37.800Z,23.60
2018-08-13T07:39:06.178Z,23.70
2018-08-13T07:41:35.279Z,23.70
2018-08-13T07:44:03.634Z,23.70
2018-08-13T07:46:32.023Z,23.70
2018-08-13T07:49:00.412Z,23.80
2018-08-13T07:51:28.803Z,23.80
2018-08-13T07:53:58.094Z,23.80
2018-08-13T07:56:26.403Z,23.70
2018-08-13T07:58:54.792Z,23.70
2018-08-13T08:01:23.213Z,23.70
2018-08-13T08:03:51.773Z,23.70
2018-08-13T08:06:20.098Z,23.70
2018-08-13T08:08:49.440Z,23.80
2018-08-13T08:11:18.642Z,23.80
2018-08-13T08:13:47.790Z,23.90
2018-08-13T08:16:16.146Z,23.90
2018-08-13T08:18:44.486Z,24.00
2018-08-13T08:21:12.837Z,24.10
2018-08-13T08:23:41.192Z,24.20
2018-08-13T08:26:09.567Z,24.30
2018-08-13T08:28:37.972Z,24.40
2018-08-13T08:31:06.331Z,24.40
2018-08-13T08:33:34.666Z,24.50
2018-08-13T08:36:03.815Z,24.50
2018-08-13T08:38:32.184Z,24.50
2018-08-13T08:41:00.639Z,24.60
2018-08-13T08:43:28.917Z,24.70
2018-08-13T08:45:57.363Z,24.80
2018-08-13T08:48:25.795Z,24.80
2018-08-13T08:50:54.938Z,24.80
2018-08-13T08:53:23.265Z,24.70
2018-08-13T08:55:51.744Z,24.70
2018-08-13T08:58:20.134Z,24.80
2018-08-13T09:00:48.530Z,24.80
2018-08-13T09:03:16.793Z,24.80
2018-08-13T09:05:45.380Z,24.90
2018-08-13T09:08:13.738Z,24.90
2018-08-13T09:10:42.691Z,24.90
2018-08-13T09:13:11.011Z,24.70
2018-08-13T09:15:39.482Z,24.70
2018-08-13T09:18:20.523Z,24.50
2018-08-13T09:21:00.794Z,24.40
2018-08-13T09:26:42.740Z,24.20
2018-08-13T09:29:23.092Z,24.00
2018-08-13T09:32:03.163Z,23.90
2018-08-13T09:34:31.497Z,23.80
2018-08-13T09:36:59.821Z,23.70
2018-08-13T09:39:28.186Z,23.70
2018-08-13T09:41:57.303Z,23.50
2018-08-13T09:44:25.669Z,23.50
2018-08-13T09:46:53.976Z,23.40
2018-08-13T09:49:22.950Z,23.30
2018-08-13T09:51:51.426Z,23.30
2018-08-13T09:54:20.521Z,23.20
2018-08-13T09:56:49.103Z,23.20
2018-08-13T09:59:17.488Z,23.00
2018-08-13T10:01:45.834Z,22.90
2018-08-13T10:04:14.414Z,22.80
2018-08-13T10:06:42.933Z,22.70
2018-08-13T10:09:11.303Z,22.60
2018-08-13T10:11:39.598Z,22.60
2018-08-13T10:14:07.946Z,22.50
2018-08-13T10:16:37.062Z,22.50
2018-08-13T10:19:05.394Z,22.50
2018-08-13T10:21:33.726Z,22.50
2018-08-13T10:24:02.054Z,22.50
2018-08-13T10:26:30.420Z,22.50
2018-08-13T10:28:58.754Z,22.50
2018-08-13T10:31:27.109Z,22.40
2018-08-13T10:33:55.626Z,22.40
2018-08-13T10:36:23.982Z,22.40
2018-08-13T10:38:54.020Z,22.40
2018-08-13T10:41:22.494Z,22.40
2018-08-13T10:43:50.900Z,22.40
2018-08-13T10:46:19.272Z,22.40
2018-08-13T10:48:47.660Z,22.30
2018-08-13T10:51:16.731Z,22.30
2018-08-13T10:53:45.083Z,22.30
2018-08-13T10:56:13.512Z,22.30
2018-08-13T10:58:42.791Z,22.20
2018-08-13T11:01:11.867Z,22.10
2018-08-13T11:03:40.143Z,22.10
2018-08-13T11:06:09.363Z,21.90
2018-08-13T11:08:38.184Z,21.90
2018-08-13T11:11:07.221Z,21.80
2018-08-13T11:13:35.838Z,21.60
2018-08-13T11:16:04.210Z,21.40
2018-08-13T11:18:32.570Z,21.30
2018-08-13T11:21:00.924Z,21.20
2018-08-13T11:23:29.474Z,21.20
2018-08-13T11:25:57.840Z,21.10
2018-08-13T11:28:26.187Z,21.20
2018-08-13T11:30:55.372Z,21.40
2018-08-13T11:33:23.692Z,21.40
2018-08-13T11:35:52.071Z,21.50
2018-08-13T11:38:20.448Z,21.60
2018-08-13T11:40:48.830Z,21.70
2018-08-13T11:43:17.164Z,21.70
2018-08-13T11:45:45.579Z,21.80
2018-08-13T11:48:14.128Z,21.90
2018-08-13T11:50:42.550Z,21.80
2018-08-13T11:53:10.892Z,21.70
2018-08-13T11:55:39.348Z,21.70
2018-08-13T11:58:07.660Z,21.60
2018-08-13T12:00:36.754Z,21.60
2018-08-13T12:03:05.878Z,21.60
2018-08-13T12:05:34.265Z,21.60
2018-08-13T12:08:02.662Z,21.60
2018-08-13T12:10:31.150Z,21.60
2018-08-13T12:12:59.967Z,21.60
2018-08-13T12:15:28.294Z,21.60
2018-08-13T12:17:57.366Z,21.60
2018-08-13T12:20:26.471Z,21.60
2018-08-13T12:22:55.568Z,21.60
2018-08-13T12:25:24.993Z,21.60
2018-08-13T12:27:53.331Z,21.50
2018-08-13T12:30:21.675Z,21.60
2018-08-13T12:32:50.062Z,21.60
2018-08-13T12:35:18.375Z,21.50
2018-08-13T12:37:47.059Z,21.50
2018-08-13T12:40:16.149Z,21.40
2018-08-13T12:42:45.352Z,21.30
2018-08-13T12:45:14.510Z,21.30
2018-08-13T12:47:42.882Z,21.20
2018-08-13T12:50:11.243Z,21.20
2018-08-13T12:52:39.627Z,21.20
2018-08-13T12:55:07.953Z,21.20
2018-08-13T12:57:36.918Z,21.20
2018-08-13T13:00:05.648Z,21.30
2018-08-13T13:02:33.975Z,21.40
2018-08-13T13:05:02.668Z,21.50
2018-08-13T13:07:31.133Z,21.60
2018-08-13T13:09:59.578Z,21.70
2018-08-13T13:12:28.731Z,21.90
2018-08-13T13:14:57.100Z,21.90
2018-08-13T13:17:25.425Z,21.90
2018-08-13T13:19:53.867Z,22.00
2018-08-13T13:22:22.228Z,22.00
2018-08-13T13:24:50.577Z,22.10
2018-08-13T13:27:19.741Z,22.20
2018-08-13T13:29:48.085Z,22.20
2018-08-13T13:32:16.540Z,22.40
2018-08-13T13:34:45.824Z,22.90
2018-08-13T13:37:14.074Z,22.90
2018-08-13T13:39:42.508Z,23.20
2018-08-13T13:42:11.312Z,23.40
2018-08-13T13:44:39.677Z,23.60
2018-08-13T13:47:08.820Z,24.00
2018-08-13T13:49:37.147Z,24.00
2018-08-13T13:52:05.562Z,24.20
2018-08-13T13:54:33.863Z,24.50
2018-08-13T13:57:02.208Z,24.70
2018-08-13T13:59:30.530Z,25.40
2018-08-13T14:01:58.886Z,25.80
2018-08-13T14:04:27.230Z,25.80
2018-08-13T14:06:55.595Z,25.80
2018-08-13T14:09:24.585Z,25.80
2018-08-13T14:11:53.038Z,25.70
2018-08-13T14:14:21.360Z,25.40
2018-08-13T14:16:49.695Z,25.00
2018-08-13T14:19:18.130Z,24.80
2018-08-13T14:21:46.468Z,24.50
2018-08-13T14:24:14.848Z,24.30
2018-08-13T14:26:43.923Z,23.90
2018-08-13T14:29:12.278Z,23.80
2018-08-13T14:31:40.636Z,23.60
2018-08-13T14:34:09.052Z,23.50
2018-08-13T14:36:37.458Z,23.50
2018-08-13T14:39:05.871Z,23.40
2018-08-13T14:41:34.193Z,23.40
2018-08-13T14:44:02.560Z,23.20
2018-08-13T14:46:30.898Z,23.10
2018-08-13T14:48:59.221Z,22.90
2018-08-13T14:51:27.591Z,22.80
2018-08-13T14:53:56.177Z,22.60
2018-08-13T14:56:24.534Z,22.60
2018-08-13T14:58:53.462Z,22.80
2018-08-13T15:01:21.980Z,22.90
2018-08-13T15:03:51.091Z,23.00
2018-08-13T15:06:19.543Z,23.00
2018-08-13T15:08:47.843Z,23.10
2018-08-13T15:11:16.203Z,23.20
2018-08-13T15:13:44.633Z,23.10
2018-08-13T15:16:12.982Z,23.20
2018-08-13T15:18:41.337Z,23.40
2018-08-13T15:21:09.670Z,23.70
2018-08-13T15:23:38.156Z,23.80
2018-08-13T15:26:06.504Z,23.90
2018-08-13T15:28:34.866Z,23.90
2018-08-13T15:31:03.972Z,23.70
2018-08-13T15:33:33.093Z,23.50
2018-08-13T15:36:01.416Z,23.50
2018-08-13T15:38:29.734Z,23.40
2018-08-13T15:40:58.135Z,23.30
2018-08-13T15:43:26.629Z,23.20
2018-08-13T15:45:54.986Z,23.20
2018-08-13T15:48:23.324Z,23.10
2018-08-13T15:50:51.673Z,23.00
2018-08-13T15:53:20.148Z,22.90
2018-08-13T15:55:48.513Z,22.90
2018-08-13T15:58:16.888Z,23.00
2018-08-13T16:00:45.261Z,23.00
2018-08-13T16:03:13.865Z,22.90
2018-08-13T16:05:42.205Z,22.80
2018-08-13T16:08:10.614Z,22.70
2018-08-13T16:10:40.082Z,22.70
2018-08-13T16:13:08.475Z,22.70
2018-08-13T16:15:36.820Z,22.70
2018-08-13T16:18:05.240Z,22.60
2018-08-13T16:20:34.621Z,22.50
2018-08-13T16:23:04.177Z,22.50
2018-08-13T16:25:32.516Z,22.50
2018-08-13T16:28:00.941Z,22.50
2018-08-13T16:30:29.421Z,22.40
2018-08-13T16:32:57.920Z,22.50
2018-08-13T16:35:26.280Z,22.50
2018-08-13T16:37:54.721Z,22.60
2018-08-13T16:40:24.123Z,22.80
2018-08-13T16:42:53.976Z,23.00
2018-08-13T16:45:22.934Z,23.00
2018-08-13T16:47:52.052Z,24.60
2018-08-13T16:50:20.405Z,24.60
2018-08-13T16:52:48.911Z,24.90
2018-08-13T16:55:17.353Z,24.60
2018-08-13T16:57:45.707Z,24.30
2018-08-13T17:00:14.048Z,24.00
2018-08-13T17:02:42.517Z,23.60
2018-08-13T17:05:10.909Z,23.30
2018-08-13T17:07:39.258Z,23.20
2018-08-13T17:10:08.392Z,23.20
2018-08-13T17:12:36.767Z,23.20
2018-08-13T17:15:05.133Z,23.20
2018-08-13T17:17:33.561Z,23.30
2018-08-13T17:20:01.961Z,23.30
2018-08-13T17:22:30.728Z,23.20
2018-08-13T17:24:59.933Z,23.00
2018-08-13T17:27:29.215Z,22.70
2018-08-13T17:29:58.044Z,22.70
2018-08-13T17:32:27.376Z,22.80
2018-08-13T17:34:55.749Z,22.80
2018-08-13T17:37:24.136Z,22.80
2018-08-13T17:39:52.509Z,22.90
2018-08-13T17:42:20.985Z,22.80
2018-08-13T17:44:50.685Z,22.80
2018-08-13T17:47:19.101Z,22.60
2018-08-13T17:49:47.955Z,22.60
2018-08-13T17:52:17.386Z,22.50
2018-08-13T17:54:45.745Z,22.50
2018-08-13T17:57:14.107Z,22.40
2018-08-13T17:59:42.835Z,22.20
2018-08-13T18:02:11.283Z,22.20
2018-08-13T18:04:39.743Z,22.10
2018-08-13T18:07:08.066Z,22.00
2018-08-13T18:09:36.706Z,22.00
2018-08-13T18:12:05.005Z,21.90
2018-08-13T18:14:33.756Z,21.80
2018-08-13T18:17:02.233Z,21.80
2018-08-13T18:19:30.992Z,21.70
2018-08-13T18:22:01.427Z,21.60
2018-08-13T18:24:29.757Z,21.60
2018-08-13T18:27:01.584Z,21.60
2018-08-13T18:29:30.184Z,21.60
2018-08-13T18:31:58.772Z,21.50
2018-08-13T18:34:27.332Z,21.50
2018-08-13T18:36:55.757Z,21.50
2018-08-13T18:39:25.048Z,21.40
2018-08-13T18:41:54.891Z,21.40
2018-08-13T18:44:24.052Z,21.40
2018-08-13T18:46:52.483Z,21.30
2018-08-13T18:49:21.530Z,21.30
2018-08-13T18:51:50.691Z,21.30
2018-08-13T18:54:19.033Z,21.30
2018-08-13T18:56:48.246Z,21.20
2018-08-13T18:59:16.692Z,21.20
2018-08-13T19:01:45.046Z,21.20
2018-08-13T19:04:13.484Z,21.10
2018-08-13T19:06:42.601Z,20.90
2018-08-13T19:09:11.050Z,20.90
2018-08-13T19:11:40.949Z,20.80
2018-08-13T19:14:10.762Z,20.80
2018-08-13T19:16:39.157Z,20.80
2018-08-13T19:19:08.713Z,20.70
2018-08-13T19:21:37.048Z,20.60
2018-08-13T19:24:06.123Z,20.60
2018-08-13T19:26:35.385Z,20.50
2018-08-13T19:29:03.740Z,20.50
2018-08-13T19:31:32.196Z,20.40
2018-08-13T19:34:00.731Z,20.40
2018-08-13T19:36:29.117Z,20.40
2018-08-13T19:38:57.464Z,20.30
2018-08-13T19:41:25.849Z,20.30
2018-08-13T19:43:54.175Z,20.20
2018-08-13T19:46:22.540Z,20.20
2018-08-13T19:48:51.052Z,20.20
2018-08-13T19:51:20.192Z,20.10
2018-08-13T19:53:48.525Z,20.10
2018-08-13T19:56:17.857Z,20.00
2018-08-13T19:58:46.186Z,20.00
2018-08-13T20:01:14.532Z,20.00
2018-08-13T20:03:42.862Z,20.00
2018-08-13T20:06:11.988Z,19.90
2018-08-13T20:08:40.318Z,19.90
2018-08-13T20:11:08.707Z,19.90
2018-08-13T20:13:37.211Z,19.80
2018-08-13T20:16:06.299Z,19.80
2018-08-13T20:18:34.713Z,19.80
2018-08-13T20:21:03.104Z,19.80
2018-08-13T20:23:31.437Z,19.70
2018-08-13T20:25:59.769Z,19.70
2018-08-13T20:28:28.093Z,19.70
2018-08-13T20:30:57.323Z,19.70
2018-08-13T20:33:25.649Z,19.60
2018-08-13T20:35:54.043Z,19.60
2018-08-13T20:38:23.241Z,19.60
2018-08-13T20:40:52.444Z,19.60
2018-08-13T20:43:20.773Z,19.50
2018-08-13T20:45:49.222Z,19.50
2018-08-13T20:48:17.627Z,19.60
2018-08-13T20:50:45.978Z,19.50
2018-08-13T20:53:15.224Z,19.50
2018-08-13T20:55:43.556Z,19.50
2018-08-13T20:58:12.679Z,19.40
2018-08-13T21:00:41.035Z,19.40
2018-08-13T21:03:10.169Z,19.30
2018-08-13T21:05:38.488Z,19.30
2018-08-13T21:08:07.618Z,19.20
2018-08-13T21:10:36.236Z,19.20
2018-08-13T21:13:04.566Z,19.20
2018-08-13T21:15:33.688Z,19.10
2018-08-13T21:18:02.142Z,19.10
2018-08-13T21:20:31.221Z,19.10
2018-08-13T21:23:00.383Z,19.00
2018-08-13T21:25:28.820Z,19.00
2018-08-13T21:27:57.105Z,19.00
2018-08-13T21:30:25.505Z,19.00
2018-08-13T21:32:54.047Z,18.90
2018-08-13T21:35:22.459Z,18.90
2018-08-13T21:37:50.852Z,18.90
2018-08-13T21:40:19.252Z,18.90
2018-08-13T21:42:47.777Z,18.90
2018-08-13T21:45:16.106Z,18.80
2018-08-13T21:47:44.471Z,18.80
2018-08-13T21:50:12.801Z,18.80
2018-08-13T21:52:41.202Z,18.70
2018-08-13T21:55:09.597Z,18.70
2018-08-13T21:57:38.694Z,18.70
2018-08-13T22:00:07.014Z,18.70
2018-08-13T22:02:35.450Z,18.70
2018-08-13T22:05:03.780Z,18.70
2018-08-13T22:07:32.123Z,18.70
2018-08-13T22:10:01.102Z,18.70
2018-08-13T22:12:29.466Z,18.70
2018-08-13T22:14:57.794Z,18.70
2018-08-13T22:17:26.174Z,18.70
2018-08-13T22:19:54.529Z,18.70
2018-08-13T22:22:23.917Z,18.60
2018-08-13T22:24:53.281Z,18.60
2018-08-13T22:27:22.629Z,18.60
2018-08-13T22:29:51.004Z,18.60
2018-08-13T22:32:19.441Z,18.50
2018-08-13T22:34:48.081Z,18.60
2018-08-13T22:37:16.386Z,18.70
2018-08-13T22:39:44.761Z,18.70
2018-08-13T22:42:13.334Z,18.80
2018-08-13T22:44:41.687Z,18.80
2018-08-13T22:47:10.191Z,18.80
2018-08-13T22:49:38.537Z,18.80
2018-08-13T22:52:06.895Z,18.80
2018-08-13T22:54:35.237Z,18.80
2018-08-13T22:57:03.643Z,18.80
2018-08-13T22:59:32.062Z,18.70
2018-08-13T23:02:00.470Z,18.70
2018-08-13T23:04:28.987Z,18.70
2018-08-13T23:06:57.321Z,18.70
2018-08-13T23:09:25.701Z,18.60
2018-08-13T23:11:54.036Z,18.60
2018-08-13T23:14:23.163Z,18.60
2018-08-13T23:16:51.560Z,18.60
2018-08-13T23:19:19.911Z,18.60
2018-08-13T23:21:48.321Z,18.60
2018-08-13T23:24:16.811Z,18.50
2018-08-13T23:26:45.173Z,18.50
2018-08-13T23:29:13.855Z,18.50
2018-08-13T23:31:42.262Z,18.50
2018-08-13T23:34:10.732Z,18.40
2018-08-13T23:36:39.169Z,18.40
2018-08-13T23:39:07.546Z,18.40
2018-08-13T23:41:35.959Z,18.40
2018-08-13T23:44:04.382Z,18.50
2018-08-13T23:46:32.720Z,18.50
2018-08-13T23:49:01.135Z,18.60
2018-08-13T23:51:29.681Z,18.50
2018-08-13T23:53:57.973Z,18.60
2018-08-13T23:56:26.460Z,18.60
2018-08-13T23:58:54.813Z,18.60
